Time;durP1;ratioP1;P1;durP2;ratioP2;P2;SDS_P1;SDS_P2;PMS_P1;PMS_P2;Temp;Humidity;BMP_temperature;BMP_pressure;BME280_temperature;BME280_humidity;BME280_pressure;Samples;Min_cycle;Max_cycle;Signal;HPM_P1;HPM_P2
2021/06/09 00:00:22;;;;;;;13.05;11.75;;;20.00;99.90;;;;;;5012633;28;20065;-74
2021/06/09 00:02:48;;;;;;;16.02;12.63;;;20.00;99.90;;;;;;5017889;28;20049;-72
2021/06/09 00:05:14;;;;;;;11.63;10.50;;;20.00;99.90;;;;;;5016685;28;20494;-75
2021/06/09 00:07:40;;;;;;;12.50;11.13;;;20.00;99.90;;;;;;5016138;28;20021;-72
2021/06/09 00:10:08;;;;;;;12.65;11.45;;;19.90;99.90;;;;;;5016043;28;20498;-74
2021/06/09 00:12:33;;;;;;;13.05;11.75;;;19.80;99.90;;;;;;5011362;28;20032;-74
2021/06/09 00:15:00;;;;;;;13.63;11.15;;;19.80;99.90;;;;;;5016043;28;20033;-75
2021/06/09 00:17:27;;;;;;;13.23;11.85;;;19.70;99.90;;;;;;5016314;28;20018;-77
2021/06/09 00:19:52;;;;;;;13.60;12.13;;;19.70;99.90;;;;;;5015786;28;20530;-75
2021/06/09 00:22:18;;;;;;;13.23;11.98;;;19.70;99.90;;;;;;5014442;28;20100;-75
2021/06/09 00:24:45;;;;;;;12.88;11.50;;;19.70;99.90;;;;;;5013699;28;20045;-80
2021/06/09 00:27:13;;;;;;;13.88;12.48;;;19.60;99.90;;;;;;5013005;28;20068;-79
2021/06/09 00:29:40;;;;;;;17.35;13.15;;;19.70;99.90;;;;;;5014688;28;20056;-81
2021/06/09 00:32:07;;;;;;;13.43;12.02;;;19.60;99.90;;;;;;5018118;28;20493;-81
2021/06/09 00:34:33;;;;;;;15.45;13.65;;;19.50;99.90;;;;;;5020904;28;20041;-81
2021/06/09 00:36:59;;;;;;;15.52;14.02;;;19.40;99.90;;;;;;5019855;28;20022;-80
2021/06/09 00:39:25;;;;;;;18.17;13.43;;;19.40;99.90;;;;;;5015937;28;20037;-80
2021/06/09 00:41:51;;;;;;;14.63;13.00;;;19.40;99.90;;;;;;5019333;28;20033;-80
2021/06/09 00:44:17;;;;;;;13.98;12.43;;;19.40;99.90;;;;;;5015309;28;20115;-81
2021/06/09 00:46:43;;;;;;;12.60;11.45;;;19.40;99.90;;;;;;5014094;28;20029;-81
2021/06/09 00:49:08;;;;;;;15.63;12.65;;;19.40;99.90;;;;;;5015965;28;20466;-80
2021/06/09 00:51:35;;;;;;;14.18;12.68;;;19.40;99.90;;;;;;5017473;28;20064;-80
2021/06/09 00:54:05;;;;;;;16.70;11.70;;;19.40;99.90;;;;;;5013740;28;20026;-80
2021/06/09 00:56:34;;;;;;;12.77;11.48;;;19.40;99.90;;;;;;5015553;28;20034;-79
2021/06/09 00:58:59;;;;;;;12.23;10.13;;;19.40;99.90;;;;;;5012672;28;20375;-74
2021/06/09 01:01:27;;;;;;;13.18;11.68;;;19.30;99.90;;;;;;5016312;28;20029;-76
2021/06/09 01:03:53;;;;;;;13.73;11.38;;;19.30;99.90;;;;;;5013825;28;20562;-78
2021/06/09 01:06:20;;;;;;;12.73;11.43;;;19.20;99.90;;;;;;5017711;28;20112;-79
2021/06/09 01:08:46;;;;;;;15.25;12.52;;;19.30;99.90;;;;;;5020045;28;20120;-79
2021/06/09 01:11:18;;;;;;;13.48;11.82;;;19.20;99.90;;;;;;5019347;28;20520;-77
2021/06/09 01:13:44;;;;;;;14.48;12.27;;;19.20;99.90;;;;;;5015789;28;20045;-80
2021/06/09 01:16:11;;;;;;;14.65;12.80;;;19.10;99.90;;;;;;5015072;28;20022;-78
2021/06/09 01:18:37;;;;;;;14.13;12.60;;;19.10;99.90;;;;;;5018700;28;20045;-79
2021/06/09 01:21:03;;;;;;;16.05;14.38;;;19.10;99.90;;;;;;5023398;28;20030;-79
2021/06/09 01:23:30;;;;;;;17.25;15.55;;;19.00;99.90;;;;;;5015303;28;20041;-79
2021/06/09 01:25:57;;;;;;;16.95;15.15;;;19.00;99.90;;;;;;5013246;28;20025;-76
2021/06/09 01:28:23;;;;;;;18.38;15.35;;;19.00;99.90;;;;;;5013375;28;20025;-78
2021/06/09 01:30:50;;;;;;;17.77;15.98;;;18.90;99.90;;;;;;5015734;28;20033;-79
2021/06/09 01:33:17;;;;;;;16.85;14.95;;;18.90;99.90;;;;;;5014222;28;20478;-79
2021/06/09 01:35:43;;;;;;;17.40;15.60;;;18.90;99.90;;;;;;5018615;28;20026;-79
2021/06/09 01:38:10;;;;;;;17.45;15.65;;;18.90;99.90;;;;;;5016114;28;20036;-79
2021/06/09 01:40:36;;;;;;;17.85;15.75;;;18.80;99.90;;;;;;5015556;28;20030;-74
2021/06/09 01:43:03;;;;;;;20.33;17.17;;;18.80;99.90;;;;;;5014414;28;20030;-73
2021/06/09 01:45:31;;;;;;;16.55;14.98;;;18.80;99.90;;;;;;5015376;28;20034;-77
2021/06/09 01:47:57;;;;;;;17.33;15.48;;;18.80;99.90;;;;;;5015950;28;20033;-78
2021/06/09 01:50:24;;;;;;;17.83;16.00;;;18.80;99.90;;;;;;5015844;28;20028;-73
2021/06/09 01:52:50;;;;;;;18.98;16.45;;;18.70;99.90;;;;;;5015480;28;20494;-72
2021/06/09 01:55:20;;;;;;;16.48;14.60;;;18.70;99.90;;;;;;5015189;28;20127;-77
2021/06/09 01:57:46;;;;;;;16.10;13.05;;;18.70;99.90;;;;;;5013843;28;20022;-75
2021/06/09 02:00:18;;;;;;;19.67;15.68;;;18.70;99.90;;;;;;5020226;28;20034;-77
2021/06/09 02:02:44;;;;;;;16.45;14.85;;;18.70;99.90;;;;;;5016567;28;20030;-74
2021/06/09 02:05:11;;;;;;;15.77;14.25;;;18.60;99.90;;;;;;5016311;28;20050;-72
2021/06/09 02:07:44;;;;;;;19.42;14.85;;;18.60;99.90;;;;;;5019207;28;20061;-72
2021/06/09 02:10:12;;;;;;;17.08;15.25;;;18.60;99.90;;;;;;5017172;28;20034;-74
2021/06/09 02:12:40;;;;;;;14.57;13.00;;;18.60;99.90;;;;;;5015434;28;20021;-73
2021/06/09 02:15:07;;;;;;;16.33;14.05;;;18.60;99.90;;;;;;5014390;28;20474;-72
2021/06/09 02:17:34;;;;;;;15.85;14.25;;;18.60;99.90;;;;;;5014658;28;20033;-72
2021/06/09 02:20:00;;;;;;;17.48;14.10;;;18.60;99.90;;;;;;5020242;28;20060;-74
2021/06/09 02:22:26;;;;;;;17.67;15.25;;;18.60;99.90;;;;;;5017154;28;20329;-73
2021/06/09 02:24:51;;;;;;;17.75;15.95;;;18.50;99.90;;;;;;5017135;28;20121;-72
2021/06/09 02:27:17;;;;;;;20.50;16.88;;;18.40;99.90;;;;;;5014504;28;20033;-73
2021/06/09 02:29:43;;;;;;;17.60;15.80;;;18.20;99.90;;;;;;5020679;28;20037;-72
2021/06/09 02:32:08;;;;;;;22.88;17.92;;;18.30;99.90;;;;;;5019883;28;20026;-72
2021/06/09 02:34:36;;;;;;;21.80;18.27;;;18.30;99.90;;;;;;5021052;28;20017;-71
2021/06/09 02:37:02;;;;;;;17.88;16.05;;;18.30;99.90;;;;;;5018530;28;20072;-72
2021/06/09 02:39:28;;;;;;;21.02;18.50;;;18.30;99.90;;;;;;5020058;28;20406;-72
2021/06/09 02:41:54;;;;;;;23.73;19.45;;;18.30;99.90;;;;;;5019134;28;20033;-72
2021/06/09 02:44:19;;;;;;;28.52;23.63;;;18.20;99.90;;;;;;5023248;28;20034;-72
2021/06/09 02:46:52;;;;;;;27.80;22.08;;;18.20;99.90;;;;;;5019148;28;20479;-72
2021/06/09 02:49:23;;;;;;;22.63;20.13;;;18.20;99.90;;;;;;5021655;28;20505;-72
2021/06/09 02:52:28;;;;;;;24.15;20.98;;;18.20;99.90;;;;;;5017243;28;20029;-72
2021/06/09 02:55:12;;;;;;;30.38;24.85;;;18.10;99.90;;;;;;5026005;28;20113;-72
2021/06/09 02:58:04;;;;;;;29.35;26.20;;;18.10;99.90;;;;;;5021218;28;20036;-73
2021/06/09 03:00:42;;;;;;;25.77;22.98;;;18.10;99.90;;;;;;5020823;28;20118;-72
2021/06/09 03:03:15;;;;;;;28.75;22.83;;;18.10;99.90;;;;;;5017424;28;20093;-72
2021/06/09 03:05:51;;;;;;;;;;;18.10;99.90;;;;;;5019948;28;20034;-72
2021/06/09 03:08:34;;;;;;;29.23;24.13;;;18.00;99.90;;;;;;5015087;28;19910;-72
2021/06/09 03:11:00;;;;;;;28.42;24.77;;;18.00;99.90;;;;;;5019374;28;20152;-72
2021/06/09 03:13:58;;;;;;;28.05;25.00;;;18.00;99.90;;;;;;5020117;28;20109;-71
2021/06/09 03:16:26;;;;;;;28.10;24.40;;;18.00;99.90;;;;;;5016089;28;20084;-72
2021/06/09 03:18:53;;;;;;;28.70;24.75;;;17.90;99.90;;;;;;5022620;28;20022;-73
2021/06/09 03:21:20;;;;;;;26.30;23.52;;;17.90;99.90;;;;;;5016265;28;20017;-72
2021/06/09 03:24:04;;;;;;;25.98;23.15;;;17.90;99.90;;;;;;5020551;28;20028;-72
2021/06/09 03:26:43;;;;;;;26.85;22.40;;;17.90;99.90;;;;;;5019895;28;20066;-72
2021/06/09 03:29:20;;;;;;;26.40;23.55;;;17.80;99.90;;;;;;5020229;28;20458;-72
2021/06/09 03:31:51;;;;;;;25.55;22.83;;;17.80;99.90;;;;;;5019620;28;20472;-72
2021/06/09 03:34:23;;;;;;;28.13;24.17;;;17.80;99.90;;;;;;5016163;28;20026;-72
2021/06/09 03:36:51;;;;;;;25.75;22.67;;;17.80;99.90;;;;;;5023499;28;20030;-72
2021/06/09 03:39:22;;;;;;;25.63;22.65;;;17.80;99.90;;;;;;5020337;28;20060;-72
2021/06/09 03:41:52;;;;;;;25.58;22.58;;;17.80;99.90;;;;;;5018369;28;20057;-72
2021/06/09 03:44:40;;;;;;;26.38;23.67;;;17.80;99.90;;;;;;5018535;28;20073;-72
2021/06/09 03:47:08;;;;;;;24.27;21.77;;;17.80;99.90;;;;;;5018968;28;20033;-72
2021/06/09 03:49:36;;;;;;;26.42;23.13;;;17.80;99.90;;;;;;5019544;28;20040;-72
2021/06/09 03:52:02;;;;;;;25.17;22.50;;;17.80;99.90;;;;;;5014925;28;20379;-73
2021/06/09 03:54:32;;;;;;;22.15;19.85;;;17.80;99.90;;;;;;5020271;28;20021;-74
2021/06/09 03:57:00;;;;;;;30.77;25.90;;;17.70;99.90;;;;;;5019801;28;20021;-72
2021/06/09 03:59:27;;;;;;;25.60;22.80;;;17.70;99.90;;;;;;5019425;28;20471;-74
2021/06/09 04:01:55;;;;;;;30.45;23.48;;;17.70;99.90;;;;;;5021443;28;20477;-72
2021/06/09 04:04:21;;;;;;;28.08;22.45;;;17.70;99.90;;;;;;5017223;28;20038;-72
2021/06/09 04:06:50;;;;;;;28.05;24.27;;;17.60;99.90;;;;;;5016552;28;20024;-72
2021/06/09 04:09:21;;;;;;;27.65;24.70;;;17.60;99.90;;;;;;5021716;28;20116;-72
2021/06/09 04:11:52;;;;;;;26.35;23.35;;;17.60;99.90;;;;;;5021793;28;20025;-73
2021/06/09 04:14:21;;;;;;;31.70;24.92;;;17.60;99.90;;;;;;5015432;28;20053;-73
2021/06/09 04:16:48;;;;;;;33.15;26.38;;;17.60;99.90;;;;;;5018418;28;20532;-72
2021/06/09 04:19:15;;;;;;;28.45;23.55;;;17.60;99.90;;;;;;5017895;28;20036;-72
2021/06/09 04:21:41;;;;;;;25.98;23.17;;;17.60;99.90;;;;;;5020230;28;20402;-73
2021/06/09 04:24:07;;;;;;;23.65;21.15;;;17.60;99.90;;;;;;5015648;28;20057;-72
2021/06/09 04:26:38;;;;;;;24.30;21.70;;;17.60;99.90;;;;;;5019222;28;20061;-72
2021/06/09 04:29:04;;;;;;;20.48;18.48;;;17.60;99.90;;;;;;5019315;28;20084;-72
2021/06/09 04:31:32;;;;;;;19.55;17.45;;;17.60;99.90;;;;;;5017401;28;20088;-72
2021/06/09 04:33:58;;;;;;;21.30;18.98;;;17.60;99.90;;;;;;5017353;28;20069;-72
2021/06/09 04:36:24;;;;;;;22.90;20.52;;;17.60;99.90;;;;;;5017371;28;20358;-73
2021/06/09 04:38:50;;;;;;;25.58;22.77;;;17.60;99.90;;;;;;5017332;28;20026;-72
2021/06/09 04:41:16;;;;;;;28.02;22.67;;;17.60;99.90;;;;;;5016088;28;20014;-72
2021/06/09 04:43:42;;;;;;;28.98;23.08;;;17.60;99.90;;;;;;5017085;28;20025;-72
2021/06/09 04:46:07;;;;;;;26.60;22.85;;;17.60;99.90;;;;;;5017285;28;20026;-74
2021/06/09 04:48:33;;;;;;;27.80;24.77;;;17.60;99.90;;;;;;5017234;28;20080;-77
2021/06/09 04:50:59;;;;;;;25.33;22.40;;;17.70;99.90;;;;;;5018781;28;20033;-79
2021/06/09 04:53:25;;;;;;;26.10;22.67;;;17.70;99.90;;;;;;5015573;28;20037;-77
2021/06/09 04:55:53;;;;;;;22.15;19.52;;;17.60;99.90;;;;;;5015793;28;20055;-76
2021/06/09 04:58:20;;;;;;;21.30;18.88;;;17.60;99.90;;;;;;5018374;28;20021;-78
2021/06/09 05:00:47;;;;;;;21.85;19.25;;;17.70;99.90;;;;;;5021022;28;20028;-77
2021/06/09 05:03:13;;;;;;;21.63;19.33;;;17.70;99.90;;;;;;5016282;28;20109;-79
2021/06/09 05:05:39;;;;;;;27.00;19.63;;;17.80;99.90;;;;;;5025539;28;20445;-77
2021/06/09 05:08:06;;;;;;;26.42;22.13;;;17.80;99.90;;;;;;5019737;28;20021;-76
2021/06/09 05:10:34;;;;;;;29.90;23.58;;;17.80;99.90;;;;;;5015874;28;20034;-77
2021/06/09 05:13:29;;;;;;;26.27;21.02;;;17.80;99.90;;;;;;5013953;28;20072;-74
2021/06/09 05:16:00;;;;;;;21.33;18.75;;;17.90;99.90;;;;;;5015725;28;20046;-76
2021/06/09 05:18:32;;;;;;;21.38;19.27;;;17.90;99.90;;;;;;5018931;28;20026;-78
2021/06/09 05:20:58;;;;;;;20.40;18.15;;;18.00;99.90;;;;;;5023247;28;20047;-78
2021/06/09 05:23:31;;;;;;;27.52;21.25;;;18.10;99.90;;;;;;5019604;28;20533;-77
2021/06/09 05:25:58;;;;;;;24.67;21.35;;;18.10;99.90;;;;;;5017433;28;20041;-79
2021/06/09 05:28:27;;;;;;;25.42;20.70;;;18.20;99.90;;;;;;5017450;28;20026;-77
2021/06/09 05:30:55;;;;;;;23.50;20.75;;;18.30;99.90;;;;;;5015466;28;20021;-78
2021/06/09 05:33:21;;;;;;;28.08;24.73;;;18.30;99.90;;;;;;5015985;28;20032;-78
2021/06/09 05:35:51;;;;;;;30.27;24.08;;;18.40;99.90;;;;;;5016486;28;20026;-78
2021/06/09 05:38:18;;;;;;;38.08;29.33;;;18.50;99.90;;;;;;5020395;28;20097;-76
2021/06/09 05:40:44;;;;;;;31.63;27.58;;;18.50;99.90;;;;;;5013801;28;20052;-79
2021/06/09 05:43:10;;;;;;;34.95;28.08;;;18.60;99.90;;;;;;5014909;28;20036;-77
2021/06/09 05:45:36;;;;;;;30.25;23.05;;;18.60;99.90;;;;;;5015224;28;20057;-78
2021/06/09 05:48:02;;;;;;;30.90;24.42;;;18.70;99.90;;;;;;5015723;28;20053;-81
2021/06/09 05:50:32;;;;;;;30.25;24.25;;;18.70;99.90;;;;;;5018234;28;20057;-78
2021/06/09 05:53:04;;;;;;;35.00;26.20;;;18.70;99.90;;;;;;5016183;28;20018;-79
2021/06/09 05:55:31;;;;;;;39.05;30.48;;;18.80;99.90;;;;;;5013985;28;20025;-78
2021/06/09 05:58:02;;;;;;;35.53;30.13;;;18.80;99.90;;;;;;5016259;28;20072;-79
2021/06/09 06:00:28;;;;;;;35.40;30.52;;;18.90;99.90;;;;;;5017175;28;20112;-78
2021/06/09 06:02:54;;;;;;;37.22;31.85;;;18.90;99.90;;;;;;5016100;28;20061;-77
2021/06/09 06:05:20;;;;;;;44.33;35.08;;;19.00;99.90;;;;;;5016290;28;20038;-73
2021/06/09 06:07:46;;;;;;;39.60;33.17;;;19.10;99.90;;;;;;5014116;28;20021;-73
2021/06/09 06:10:13;;;;;;;35.65;31.10;;;19.10;99.90;;;;;;5012105;28;20403;-72
2021/06/09 06:12:40;;;;;;;44.65;39.65;;;19.10;99.90;;;;;;5013346;28;20378;-72
2021/06/09 06:15:10;;;;;;;41.88;34.28;;;19.20;99.90;;;;;;5012736;28;20111;-72
2021/06/09 06:17:44;;;;;;;42.42;35.75;;;19.20;99.90;;;;;;5017262;28;20084;-72
2021/06/09 06:20:19;;;;;;;50.97;39.72;;;19.30;99.90;;;;;;5014603;28;20057;-72
2021/06/09 06:22:46;;;;;;;46.15;37.03;;;19.40;99.90;;;;;;5023597;28;20041;-72
2021/06/09 06:25:17;;;;;;;53.75;43.45;;;19.40;99.90;;;;;;5013478;28;20400;-72
2021/06/09 06:27:47;;;;;;;55.80;43.45;;;19.50;99.90;;;;;;5018340;28;20422;-72
2021/06/09 06:30:22;;;;;;;49.65;41.08;;;19.60;99.90;;;;;;5014447;28;20045;-72
2021/06/09 06:32:54;;;;;;;56.35;44.38;;;19.60;99.90;;;;;;5018532;28;20021;-72
2021/06/09 06:35:22;;;;;;;53.97;43.65;;;19.80;99.90;;;;;;5016127;28;20368;-72
2021/06/09 06:37:50;;;;;;;54.20;42.25;;;19.80;99.90;;;;;;5018703;28;20604;-72
2021/06/09 06:40:35;;;;;;;54.70;44.83;;;19.90;99.90;;;;;;5015122;28;20033;-75
2021/06/09 06:43:02;;;;;;;51.88;44.55;;;20.00;99.90;;;;;;5016139;28;20044;-75
2021/06/09 06:45:28;;;;;;;57.22;45.20;;;20.10;99.90;;;;;;5014808;28;20042;-75
2021/06/09 06:47:54;;;;;;;54.38;41.95;;;20.20;99.90;;;;;;5019790;28;20057;-74
2021/06/09 06:50:22;;;;;;;52.15;44.22;;;20.20;99.90;;;;;;5015371;28;20029;-75
2021/06/09 06:52:48;;;;;;;55.47;42.65;;;20.40;99.90;;;;;;5016884;28;20029;-76
2021/06/09 06:55:16;;;;;;;50.63;43.15;;;20.50;99.90;;;;;;5015415;28;20145;-76
2021/06/09 06:57:42;;;;;;;53.28;42.88;;;20.60;99.90;;;;;;5015451;28;20116;-76
2021/06/09 07:00:15;;;;;;;51.50;42.95;;;20.80;99.90;;;;;;5015724;28;20083;-76
2021/06/09 07:02:44;;;;;;;53.47;41.70;;;20.90;99.90;;;;;;5022681;28;20057;-77
2021/06/09 07:05:10;;;;;;;52.70;43.25;;;21.00;99.90;;;;;;5012661;28;20042;-71
2021/06/09 07:07:39;;;;;;;49.17;41.10;;;21.00;99.90;;;;;;5018692;28;20021;-76
2021/06/09 07:10:06;;;;;;;51.72;42.55;;;21.20;99.90;;;;;;5016375;28;20026;-77
2021/06/09 07:12:35;;;;;;;55.67;43.80;;;21.40;99.90;;;;;;5013597;28;20053;-77
2021/06/09 07:15:03;;;;;;;52.05;42.65;;;21.50;99.90;;;;;;5015168;28;20026;-76
2021/06/09 07:17:29;;;;;;;56.53;43.80;;;21.50;99.90;;;;;;5018203;28;20018;-77
2021/06/09 07:19:55;;;;;;;61.92;45.53;;;21.70;99.90;;;;;;5018870;28;20037;-76
2021/06/09 07:22:20;;;;;;;60.40;46.25;;;21.70;99.90;;;;;;5018369;28;20017;-77
2021/06/09 07:24:46;;;;;;;60.83;47.33;;;21.80;99.90;;;;;;5017219;28;20029;-75
2021/06/09 07:27:16;;;;;;;54.05;44.00;;;21.90;99.90;;;;;;5019559;28;20052;-78
2021/06/09 07:29:42;;;;;;;55.78;41.55;;;22.00;99.90;;;;;;5021068;28;20375;-76
2021/06/09 07:32:08;;;;;;;57.72;41.95;;;22.10;99.90;;;;;;5016611;28;20021;-77
2021/06/09 07:34:34;;;;;;;56.10;41.70;;;22.20;99.90;;;;;;5017425;28;20144;-77
2021/06/09 07:37:04;;;;;;;49.13;38.83;;;22.40;99.90;;;;;;5016947;28;20479;-71
2021/06/09 07:39:35;;;;;;;47.47;39.13;;;22.40;99.90;;;;;;5016516;28;20064;-71
2021/06/09 07:42:04;;;;;;;46.50;38.65;;;22.50;99.90;;;;;;5018937;28;20021;-70
2021/06/09 07:44:38;;;;;;;48.35;39.60;;;22.60;99.90;;;;;;5019442;28;20033;-71
2021/06/09 07:47:07;;;;;;;41.65;36.17;;;22.70;99.90;;;;;;5018699;28;20033;-70
2021/06/09 07:49:36;;;;;;;41.72;34.63;;;22.80;99.90;;;;;;5016758;28;20017;-70
2021/06/09 07:52:03;;;;;;;41.72;32.10;;;22.80;99.90;;;;;;5015201;28;20144;-71
2021/06/09 07:54:30;;;;;;;38.00;32.10;;;22.90;99.90;;;;;;5018327;28;20104;-70
2021/06/09 07:57:00;;;;;;;37.17;29.15;;;22.90;99.90;;;;;;5017256;28;20497;-70
2021/06/09 07:59:26;;;;;;;36.58;30.42;;;23.10;99.90;;;;;;5021613;28;20021;-70
2021/06/09 08:01:52;;;;;;;43.08;31.27;;;23.10;99.90;;;;;;5020592;28;20103;-70
2021/06/09 08:04:20;;;;;;;37.85;30.10;;;23.20;99.90;;;;;;5018925;28;20484;-70
2021/06/09 08:06:47;;;;;;;38.53;31.00;;;23.20;99.90;;;;;;5003349;28;20030;-70
2021/06/09 08:09:15;;;;;;;41.80;33.10;;;23.30;99.90;;;;;;5018240;28;20044;-70
2021/06/09 08:11:44;;;;;;;39.30;31.75;;;23.40;99.90;;;;;;5020814;28;20045;-69
2021/06/09 08:14:11;;;;;;;36.45;30.17;;;23.50;99.90;;;;;;5025022;28;20037;-71
2021/06/09 08:16:40;;;;;;;35.53;31.08;;;23.50;99.90;;;;;;5018367;28;20029;-71
2021/06/09 08:19:06;;;;;;;39.08;29.67;;;23.60;99.90;;;;;;5021491;28;20026;-70
2021/06/09 08:21:33;;;;;;;34.15;29.15;;;23.60;99.90;;;;;;5015042;28;20033;-71
2021/06/09 08:23:59;;;;;;;33.58;27.95;;;23.70;99.90;;;;;;5019229;28;20022;-71
2021/06/09 08:26:26;;;;;;;31.67;24.98;;;23.80;99.90;;;;;;5016892;28;20419;-71
2021/06/09 08:28:54;;;;;;;34.08;26.63;;;23.80;99.90;;;;;;5017196;28;20037;-71
2021/06/09 08:31:26;;;;;;;31.33;26.58;;;23.80;99.90;;;;;;5016764;28;20017;-71
2021/06/09 08:33:53;;;;;;;33.65;27.23;;;23.90;99.90;;;;;;5020009;28;20018;-72
2021/06/09 08:36:20;;;;;;;31.77;28.30;;;23.90;99.90;;;;;;5015604;28;20026;-70
2021/06/09 08:38:49;;;;;;;30.38;27.15;;;23.90;99.90;;;;;;5017911;28;20034;-71
2021/06/09 08:41:18;;;;;;;29.75;26.33;;;24.10;99.90;;;;;;5017163;28;20356;-70
2021/06/09 08:43:48;;;;;;;29.40;25.27;;;24.20;99.90;;;;;;5015705;28;20087;-72
2021/06/09 08:46:15;;;;;;;25.35;22.70;;;24.30;99.90;;;;;;5016999;28;20084;-71
2021/06/09 08:48:44;;;;;;;25.48;21.08;;;24.40;99.90;;;;;;5016172;28;20022;-71
2021/06/09 08:51:11;;;;;;;26.13;22.55;;;24.50;99.90;;;;;;5017431;28;20525;-72
2021/06/09 08:53:41;;;;;;;21.90;18.50;;;24.50;99.90;;;;;;5015528;28;20018;-71
2021/06/09 08:56:07;;;;;;;23.40;20.77;;;24.60;99.90;;;;;;5014675;28;20054;-71
2021/06/09 08:58:35;;;;;;;26.00;22.33;;;24.80;99.90;;;;;;5014567;28;20065;-70
2021/06/09 09:01:01;;;;;;;23.60;19.98;;;24.90;99.90;;;;;;5015376;28;20410;-71
2021/06/09 09:03:27;;;;;;;25.10;21.40;;;24.90;99.90;;;;;;5016479;28;20030;-71
2021/06/09 09:05:52;;;;;;;21.45;19.20;;;25.00;99.90;;;;;;5015047;28;20025;-70
2021/06/09 09:08:18;;;;;;;22.15;19.58;;;24.90;99.90;;;;;;5018453;28;20109;-70
2021/06/09 09:10:43;;;;;;;22.45;16.48;;;24.90;99.90;;;;;;5014921;28;20033;-71
2021/06/09 09:13:09;;;;;;;23.00;20.13;;;25.00;99.90;;;;;;5016670;28;20029;-71
2021/06/09 09:15:35;;;;;;;22.67;20.00;;;25.10;99.90;;;;;;5015095;28;20501;-72
2021/06/09 09:18:03;;;;;;;23.38;20.42;;;25.30;99.90;;;;;;5015110;28;20052;-72
2021/06/09 09:20:30;;;;;;;21.02;18.15;;;25.30;99.90;;;;;;5013970;28;20025;-70
2021/06/09 09:22:58;;;;;;;21.13;18.48;;;25.50;99.90;;;;;;5016983;28;20034;-70
2021/06/09 09:25:27;;;;;;;20.63;18.58;;;25.60;99.90;;;;;;5014728;28;20041;-70
2021/06/09 09:28:01;;;;;;;18.73;15.80;;;25.70;99.90;;;;;;5013504;28;20100;-70
2021/06/09 09:30:29;;;;;;;19.27;17.17;;;25.80;99.90;;;;;;5017328;28;20029;-70
2021/06/09 09:33:04;;;;;;;20.60;18.15;;;25.90;99.90;;;;;;5019275;28;20048;-70
2021/06/09 09:35:36;;;;;;;19.75;17.35;;;26.00;99.90;;;;;;5018403;28;20596;-74
2021/06/09 09:38:14;;;;;;;23.50;20.20;;;26.10;99.90;;;;;;5014994;28;20026;-70
2021/06/09 09:41:07;;;;;;;20.67;17.83;;;26.20;99.90;;;;;;5013233;28;20033;-70
2021/06/09 09:44:07;;;;;;;21.35;19.27;;;26.40;99.90;;;;;;5020414;28;20026;-70
2021/06/09 09:46:55;;;;;;;23.42;20.83;;;26.50;99.90;;;;;;5017829;28;20037;-71
2021/06/09 09:49:22;;;;;;;22.77;20.33;;;26.60;99.90;;;;;;5013926;28;20416;-70
2021/06/09 09:51:50;;;;;;;25.23;20.95;;;26.60;99.90;;;;;;5020160;28;20057;-70
2021/06/09 09:54:35;;;;;;;23.08;20.58;;;26.30;99.90;;;;;;5015959;28;20030;-70
2021/06/09 09:57:05;;;;;;;24.75;21.83;;;26.40;99.90;;;;;;5016988;28;20021;-70
2021/06/09 09:59:31;;;;;;;23.02;20.65;;;26.50;99.90;;;;;;5013752;28;20105;-70
2021/06/09 10:02:01;;;;;;;21.17;19.08;;;26.70;99.90;;;;;;5011581;28;20025;-70
2021/06/09 10:04:33;;;;;;;23.17;19.13;;;26.80;99.90;;;;;;5016731;28;20115;-70
2021/06/09 10:06:59;;;;;;;25.23;22.07;;;27.00;99.90;;;;;;5010921;28;20022;-70
2021/06/09 10:09:43;;;;;;;26.67;23.55;;;27.10;99.90;;;;;;5014397;28;20030;-70
2021/06/09 10:12:16;;;;;;;26.02;23.08;;;26.70;99.90;;;;;;5024538;28;20508;-70
2021/06/09 10:14:49;;;;;;;19.20;17.23;;;26.40;99.90;;;;;;5013875;28;20083;-70
2021/06/09 10:17:17;;;;;;;17.20;15.27;;;26.30;99.50;;;;;;5016289;28;20738;-70
2021/06/09 10:19:54;;;;;;;20.00;17.48;;;26.10;99.00;;;;;;5014728;28;20036;-70
2021/06/09 10:22:22;;;;;;;16.67;14.88;;;26.30;99.90;;;;;;5012579;28;20030;-69
2021/06/09 10:24:49;;;;;;;19.17;17.02;;;26.20;99.40;;;;;;5016410;28;20091;-71
2021/06/09 10:27:17;;;;;;;15.60;13.93;;;26.60;99.70;;;;;;5014613;28;20029;-71
2021/06/09 10:29:43;;;;;;;21.08;18.83;;;26.90;98.50;;;;;;5014335;28;20073;-70
2021/06/09 10:32:11;;;;;;;18.20;16.15;;;27.10;99.00;;;;;;5014760;28;20026;-70
2021/06/09 10:34:38;;;;;;;15.55;14.02;;;27.30;99.20;;;;;;5018015;28;20055;-70
2021/06/09 10:37:06;;;;;;;15.95;14.35;;;27.50;99.90;;;;;;5012391;28;20077;-73
2021/06/09 10:39:35;;;;;;;17.75;14.77;;;27.60;98.20;;;;;;5012861;28;20030;-70
2021/06/09 10:42:11;;;;;;;18.23;14.63;;;27.40;97.80;;;;;;5013425;28;20490;-70
2021/06/09 10:44:40;;;;;;;18.10;14.73;;;27.30;99.30;;;;;;5016431;28;20042;-70
2021/06/09 10:47:12;;;;;;;17.38;15.30;;;27.30;97.90;;;;;;5018040;28;20028;-70
2021/06/09 10:49:39;;;;;;;14.70;13.20;;;27.40;96.70;;;;;;5015036;28;20026;-69
2021/06/09 10:52:05;;;;;;;14.55;13.05;;;27.40;97.40;;;;;;5018907;28;20021;-69
2021/06/09 10:54:31;;;;;;;14.68;10.02;;;27.50;96.20;;;;;;5019276;28;20022;-71
2021/06/09 10:56:58;;;;;;;15.32;12.52;;;27.40;97.70;;;;;;5023395;28;20266;-69
2021/06/09 10:59:27;;;;;;;15.98;14.27;;;27.30;98.00;;;;;;5020128;28;20039;-71
2021/06/09 11:02:00;;;;;;;14.13;12.57;;;27.00;97.50;;;;;;5021636;28;20505;-70
2021/06/09 11:04:32;;;;;;;17.73;14.75;;;27.00;97.80;;;;;;5018957;28;20064;-71
2021/06/09 11:06:57;;;;;;;19.10;15.85;;;27.00;97.60;;;;;;5019980;28;20044;-69
2021/06/09 11:09:27;;;;;;;15.05;13.30;;;26.80;97.00;;;;;;5015214;28;20033;-74
2021/06/09 11:12:36;;;;;;;16.15;14.45;;;26.70;97.90;;;;;;5020164;28;20084;-69
2021/06/09 11:15:08;;;;;;;14.40;12.48;;;26.50;98.80;;;;;;4948117;28;20524;-69
2021/06/09 11:17:40;;;;;;;14.60;12.33;;;26.70;99.90;;;;;;4948604;28;20095;-71
2021/06/09 11:20:30;;;;;;;16.67;13.50;;;27.00;99.90;;;;;;4993562;28;20296;-70
2021/06/09 11:23:03;;;;;;;15.65;13.52;;;26.80;99.30;;;;;;5025881;28;20183;-70
2021/06/09 11:25:44;;;;;;;13.70;12.30;;;26.70;99.00;;;;;;5026560;28;20040;-69
2021/06/09 11:28:14;;;;;;;14.88;12.90;;;26.60;97.50;;;;;;5018033;28;20113;-69
2021/06/09 11:30:42;;;;;;;15.40;11.90;;;26.50;99.20;;;;;;5019256;28;20030;-70
2021/06/09 11:33:10;;;;;;;14.68;13.00;;;26.90;99.90;;;;;;5023853;28;20490;-70
2021/06/09 11:35:47;;;;;;;16.95;14.20;;;27.20;97.60;;;;;;5016600;28;20045;-70
2021/06/09 11:38:13;;;;;;;17.20;14.07;;;27.40;96.10;;;;;;5017689;28;20065;-69
2021/06/09 11:40:48;;;;;;;13.48;12.07;;;27.70;96.00;;;;;;5019651;28;20101;-71
2021/06/09 11:43:21;;;;;;;16.08;14.48;;;27.80;94.80;;;;;;5022858;28;20469;-70
2021/06/09 11:45:51;;;;;;;16.50;14.50;;;28.00;95.40;;;;;;5015227;28;20153;-70
2021/06/09 11:48:23;;;;;;;16.35;14.43;;;28.20;96.00;;;;;;5019546;28;20022;-70
2021/06/09 11:50:52;;;;;;;13.90;12.55;;;28.30;94.70;;;;;;5017765;28;20109;-70
2021/06/09 11:53:39;;;;;;;13.27;11.18;;;28.30;94.70;;;;;;5017629;28;20387;-70
2021/06/09 11:56:11;;;;;;;14.45;12.85;;;28.40;95.00;;;;;;5018895;28;20071;-70
2021/06/09 11:58:38;;;;;;;16.70;11.00;;;28.50;93.10;;;;;;5018481;28;20029;-69
2021/06/09 12:01:09;;;;;;;13.73;12.45;;;28.10;94.60;;;;;;5020264;28;20053;-71
2021/06/09 12:03:37;;;;;;;15.82;13.68;;;27.90;95.20;;;;;;5018627;28;20022;-70
2021/06/09 12:06:20;;;;;;;14.90;13.43;;;27.70;95.80;;;;;;5014492;28;20022;-70
2021/06/09 12:08:48;;;;;;;13.77;12.38;;;27.80;95.40;;;;;;5019202;28;20040;-70
2021/06/09 12:11:15;;;;;;;15.93;13.65;;;27.90;96.00;;;;;;5022104;28;20030;-69
2021/06/09 12:13:41;;;;;;;15.65;12.80;;;28.10;96.30;;;;;;5019248;28;20057;-69
2021/06/09 12:16:16;;;;;;;16.60;14.85;;;28.30;94.50;;;;;;5015836;28;20053;-70
2021/06/09 12:18:46;;;;;;;13.65;12.27;;;28.30;94.40;;;;;;5013193;28;20112;-71
2021/06/09 12:21:15;;;;;;;14.93;13.45;;;28.50;94.90;;;;;;5017766;28;20064;-69
2021/06/09 12:24:09;;;;;;;15.27;12.98;;;28.60;93.50;;;;;;5016049;28;20072;-70
2021/06/09 12:26:35;;;;;;;14.43;12.98;;;28.60;93.20;;;;;;5016511;28;20041;-69
2021/06/09 12:29:02;;;;;;;15.43;13.38;;;28.70;94.60;;;;;;5016627;28;20033;-69
2021/06/09 12:31:28;;;;;;;16.13;14.48;;;28.80;93.20;;;;;;5018352;28;20028;-70
2021/06/09 12:33:54;;;;;;;12.43;11.23;;;28.70;93.40;;;;;;5017884;28;20022;-71
2021/06/09 12:36:19;;;;;;;14.00;12.50;;;28.70;93.70;;;;;;5014012;28;20038;-69
2021/06/09 12:38:45;;;;;;;13.00;11.70;;;28.90;93.40;;;;;;5016084;28;20397;-70